Time;durP1;ratioP1;P1;durP2;ratioP2;P2;SDS_P1;SDS_P2;PMS_P1;PMS_P2;Temp;Humidity;BMP_temperature;BMP_pressure;BME280_temperature;BME280_humidity;BME280_pressure;Samples;Min_cycle;Max_cycle;Signal;HPM_P1;HPM_P2
2022/07/23 00:01:30;;;;;;;9.32;5.18;;;;;;;17.48;67.62;99114.19;5054007;28;20064;-65
2022/07/23 00:03:56;;;;;;;6.05;5.18;;;;;;;17.51;67.37;99121.63;5052417;28;20040;-64
2022/07/23 00:06:22;;;;;;;8.25;5.03;;;;;;;17.50;67.58;99117.38;5035383;28;20148;-65
2022/07/23 00:08:48;;;;;;;7.03;4.75;;;;;;;17.46;67.62;99106.41;5052117;28;20223;-65
2022/07/23 00:11:14;;;;;;;5.63;4.63;;;;;;;17.44;67.75;99116.66;5052575;28;20064;-65
2022/07/23 00:13:40;;;;;;;5.72;4.85;;;;;;;17.42;68.05;99118.81;5051806;28;20041;-66
2022/07/23 00:16:06;;;;;;;9.85;5.50;;;;;;;17.37;68.21;99126.13;5052574;28;20083;-66
2022/07/23 00:18:31;;;;;;;5.22;4.65;;;;;;;17.32;68.15;99120.81;5053526;28;20095;-64
2022/07/23 00:20:57;;;;;;;7.78;4.97;;;;;;;17.30;68.31;99125.69;5054152;28;20045;-65
2022/07/23 00:23:24;;;;;;;6.10;5.00;;;;;;;17.27;68.48;99126.25;5052320;28;20052;-65
2022/07/23 00:25:51;;;;;;;5.97;4.88;;;;;;;17.30;68.69;99128.38;5053502;28;20079;-65
2022/07/23 00:28:18;;;;;;;5.20;4.70;;;;;;;17.27;68.89;99126.25;5051873;28;20106;-65
2022/07/23 00:30:44;;;;;;;5.40;4.85;;;;;;;17.25;68.86;99127.34;5068887;28;20067;-66
2022/07/23 00:33:10;;;;;;;6.22;4.80;;;;;;;17.21;68.97;99118.28;5068479;28;20111;-66
2022/07/23 00:35:40;;;;;;;5.55;4.97;;;;;;;17.23;69.20;99126.03;5052370;28;20136;-65
2022/07/23 00:38:07;;;;;;;5.57;5.07;;;;;;;17.24;69.01;99124.97;5052383;28;20061;-66
2022/07/23 00:40:33;;;;;;;5.63;4.75;;;;;;;17.21;69.12;99123.66;5052144;28;20040;-65
2022/07/23 00:42:59;;;;;;;7.35;4.95;;;;;;;17.20;69.34;99123.91;5051937;28;20041;-64
2022/07/23 00:45:25;;;;;;;7.53;5.25;;;;;;;17.16;69.51;99122.91;5053133;28;20041;-63
2022/07/23 00:47:51;;;;;;;5.63;4.60;;;;;;;17.16;69.57;99130.94;5068417;28;20517;-65
2022/07/23 00:50:17;;;;;;;7.82;4.82;;;;;;;17.09;69.47;99128.63;5051777;28;20048;-65
2022/07/23 00:52:43;;;;;;;5.68;4.70;;;;;;;17.06;69.73;99123.84;5051414;28;20047;-65
2022/07/23 00:55:10;;;;;;;6.20;4.90;;;;;;;17.00;69.65;99123.09;5053063;28;20045;-65
2022/07/23 00:57:36;;;;;;;6.22;4.95;;;;;;;17.01;70.02;99131.91;5052612;28;20476;-65
2022/07/23 01:00:04;;;;;;;8.07;5.70;;;;;;;17.03;70.17;99129.75;5052724;28;20393;-65
2022/07/23 01:02:30;;;;;;;5.88;5.13;;;;;;;17.02;70.45;99131.63;5051001;28;20098;-66
2022/07/23 01:04:56;;;;;;;6.50;5.20;;;;;;;17.03;70.39;99132.44;5052942;28;20037;-66
2022/07/23 01:07:21;;;;;;;8.07;5.00;;;;;;;17.01;70.51;99137.28;5052395;28;20048;-67
2022/07/23 01:09:47;;;;;;;5.95;4.80;;;;;;;16.92;70.88;99128.28;5051339;28;20077;-66
2022/07/23 01:12:14;;;;;;;7.63;5.15;;;;;;;16.94;70.75;99128.78;5051106;28;20114;-65
2022/07/23 01:14:39;;;;;;;6.32;5.43;;;;;;;16.96;70.90;99127.41;5051344;28;20041;-66
2022/07/23 01:17:06;;;;;;;6.18;4.78;;;;;;;16.97;70.69;99134.38;5051071;28;20076;-66
2022/07/23 01:19:31;;;;;;;5.68;5.07;;;;;;;16.98;71.03;99127.13;5050543;28;20076;-66
2022/07/23 01:22:02;;;;;;;6.38;4.80;;;;;;;16.96;70.78;99131.97;5034655;28;20049;-66
2022/07/23 01:24:28;;;;;;;5.38;4.80;;;;;;;16.95;71.11;99130.38;5051372;28;20533;-65
2022/07/23 01:26:58;;;;;;;8.27;4.60;;;;;;;16.97;71.11;99121.00;5067592;28;20056;-66
2022/07/23 01:29:24;;;;;;;5.25;4.72;;;;;;;17.03;71.06;99125.19;5051003;28;20045;-66
2022/07/23 01:31:52;;;;;;;7.20;5.40;;;;;;;17.09;70.41;99122.44;5050782;28;20102;-64
2022/07/23 01:34:17;;;;;;;5.90;4.82;;;;;;;17.14;70.20;99125.84;5050777;28;20040;-65
2022/07/23 01:36:43;;;;;;;6.43;4.68;;;;;;;17.23;69.78;99126.81;5051891;28;20464;-67
2022/07/23 01:39:10;;;;;;;6.55;5.05;;;;;;;17.38;69.33;99125.03;5050461;28;20049;-65
2022/07/23 01:41:36;;;;;;;5.38;4.88;;;;;;;17.55;68.87;99116.50;5067338;28;20094;-65
2022/07/23 01:44:02;;;;;;;5.78;5.18;;;;;;;17.75;68.02;99115.41;5033555;28;20044;-65
2022/07/23 01:46:28;;;;;;;6.10;4.38;;;;;;;17.90;67.49;99116.00;5066229;28;20455;-66
2022/07/23 01:48:54;;;;;;;5.90;4.97;;;;;;;18.05;66.74;99114.16;5050707;28;20124;-66
2022/07/23 01:51:32;;;;;;;8.18;5.07;;;;;;;18.31;66.63;99112.63;5051760;28;20510;-65
2022/07/23 01:54:04;;;;;;;5.88;5.15;;;;;;;18.65;64.95;99121.44;5033545;28;20123;-65
2022/07/23 01:56:29;;;;;;;5.90;4.82;;;;;;;18.89;63.96;99118.63;5047475;28;20132;-64
2022/07/23 01:58:55;;;;;;;6.78;4.75;;;;;;;19.16;63.30;99118.59;5038381;28;20126;-65
2022/07/23 02:01:22;;;;;;;6.72;4.97;;;;;;;19.37;62.37;99113.56;5050058;28;20171;-66
2022/07/23 02:03:48;;;;;;;5.70;4.97;;;;;;;19.65;61.38;99125.09;5033668;28;20119;-66
2022/07/23 02:06:14;;;;;;;6.28;5.43;;;;;;;19.88;60.42;99125.91;5066606;28;20468;-67
2022/07/23 02:08:39;;;;;;;7.15;4.68;;;;;;;20.09;60.17;99120.84;5066559;28;20049;-67
2022/07/23 02:11:05;;;;;;;6.63;5.15;;;;;;;20.40;58.84;99120.06;5050047;28;20033;-67
2022/07/23 02:13:32;;;;;;;6.85;5.07;;;;;;;20.67;58.05;99123.69;5051840;28;20192;-65
2022/07/23 02:15:59;;;;;;;7.80;6.75;;;;;;;20.90;57.23;99119.81;5049905;28;20037;-64
2022/07/23 02:18:24;;;;;;;6.47;5.88;;;;;;;21.10;56.45;99126.53;5066293;28;20049;-64
2022/07/23 02:20:51;;;;;;;5.70;4.55;;;;;;;21.31;55.66;99115.97;5051789;28;20322;-65
2022/07/23 02:23:17;;;;;;;7.88;4.72;;;;;;;21.61;54.88;99118.88;5049857;28;20183;-66
2022/07/23 02:25:42;;;;;;;5.07;4.65;;;;;;;21.91;53.83;99125.19;5051702;28;20557;-66
2022/07/23 02:28:09;;;;;;;5.15;4.40;;;;;;;21.99;53.75;99124.41;5049918;28;20178;-65
2022/07/23 02:30:35;;;;;;;6.35;4.70;;;;;;;22.23;52.89;99126.63;5049187;28;20037;-66
2022/07/23 02:33:01;;;;;;;5.50;4.35;;;;;;;22.42;52.21;99129.75;5050428;28;20044;-64
2022/07/23 02:35:26;;;;;;;6.55;5.45;;;;;;;22.48;52.88;99133.09;5049878;28;20116;-65
2022/07/23 02:37:52;;;;;;;6.03;5.25;;;;;;;22.68;52.04;99126.97;5049292;28;20049;-66
2022/07/23 02:40:18;;;;;;;7.25;5.35;;;;;;;22.88;51.25;99128.16;5049572;28;20152;-66
2022/07/23 02:42:44;;;;;;;7.30;5.20;;;;;;;23.08;50.46;99128.56;5049759;28;20056;-65
2022/07/23 02:45:10;;;;;;;6.07;5.47;;;;;;;23.20;50.26;99128.63;5050810;28;20406;-66
2022/07/23 02:47:36;;;;;;;12.48;7.95;;;;;;;23.24;50.25;99129.59;5032614;28;20106;-65
2022/07/23 02:50:05;;;;;;;13.32;10.60;;;;;;;23.22;50.22;99134.53;5032898;28;20181;-67
2022/07/23 02:52:31;;;;;;;16.05;11.43;;;;;;;23.54;49.12;99135.75;5033392;28;20041;-66
2022/07/23 02:54:56;;;;;;;12.40;10.60;;;;;;;23.89;48.87;99129.31;5051357;28;20045;-65
2022/07/23 02:57:22;;;;;;;9.70;7.95;;;;;;;24.18;48.11;99137.31;5050231;28;20044;-66
2022/07/23 02:59:48;;;;;;;9.82;7.65;;;;;;;24.40;47.72;99124.47;5050495;28;20508;-65
2022/07/23 03:02:14;;;;;;;11.57;6.28;;;;;;;24.41;47.36;99128.75;5037077;28;20046;-66
2022/07/23 03:04:42;;;;;;;9.65;6.53;;;;;;;24.45;47.35;99132.44;5047135;28;20092;-66
2022/07/23 03:07:08;;;;;;;8.98;6.55;;;;;;;24.68;47.24;99132.81;5050188;28;20094;-67
2022/07/23 03:09:35;;;;;;;9.25;7.70;;;;;;;24.74;46.47;99136.06;5066459;28;20124;-66
2022/07/23 03:12:00;;;;;;;7.97;7.20;;;;;;;24.93;46.32;99141.72;5032608;28;20687;-66
2022/07/23 03:14:27;;;;;;;7.03;6.32;;;;;;;25.14;46.05;99141.63;5033280;28;20033;-65
2022/07/23 03:16:54;;;;;;;6.05;4.90;;;;;;;25.25;45.80;99144.69;5049797;28;20049;-65
2022/07/23 03:19:21;;;;;;;5.47;4.68;;;;;;;25.34;45.31;99142.63;5033077;28;20123;-65
2022/07/23 03:21:46;;;;;;;5.78;4.50;;;;;;;25.34;45.27;99151.56;5049528;28;20132;-66
2022/07/23 03:24:12;;;;;;;6.57;5.10;;;;;;;25.42;45.56;99149.09;5050573;28;20557;-65
2022/07/23 03:26:39;;;;;;;5.85;4.25;;;;;;;25.59;45.01;99140.69;5065769;28;20132;-67
2022/07/23 03:29:05;;;;;;;4.68;4.18;;;;;;;25.66;44.72;99146.31;5049490;28;20043;-66
2022/07/23 03:31:32;;;;;;;6.82;4.68;;;;;;;25.77;44.54;99141.97;5032772;28;20091;-66
2022/07/23 03:33:58;;;;;;;7.55;4.45;;;;;;;25.85;44.48;99134.81;5048985;28;20037;-66
2022/07/23 03:36:24;;;;;;;6.30;4.53;;;;;;;25.89;44.36;99143.88;5049577;28;20045;-66
2022/07/23 03:38:51;;;;;;;5.55;4.32;;;;;;;25.90;44.94;99141.94;5065684;28;20110;-66
2022/07/23 03:41:18;;;;;;;5.35;4.82;;;;;;;25.86;44.77;99131.00;5066790;28;20040;-66
2022/07/23 03:43:44;;;;;;;7.18;4.53;;;;;;;26.14;44.17;99136.41;5036397;28;20045;-67
2022/07/23 03:46:11;;;;;;;9.27;4.78;;;;;;;26.28;44.23;99138.72;5036318;28;20048;-67
2022/07/23 03:48:37;;;;;;;5.50;4.60;;;;;;;26.43;43.88;99134.44;5054450;28;20040;-67
2022/07/23 03:51:03;;;;;;;6.47;4.50;;;;;;;26.50;43.89;99142.78;5053043;28;20645;-66
2022/07/23 03:53:29;;;;;;;7.38;6.25;;;;;;;26.54;43.97;99137.47;5069068;28;20057;-66
2022/07/23 03:55:55;;;;;;;7.20;4.93;;;;;;;26.58;43.91;99149.22;5052768;28;20502;-67
2022/07/23 03:58:22;;;;;;;6.25;4.68;;;;;;;26.45;44.37;99149.25;5019498;28;20122;-64
2022/07/23 04:00:48;;;;;;;6.65;5.00;;;;;;;26.36;44.96;99142.41;5053241;28;20088;-66
2022/07/23 04:03:14;;;;;;;5.07;4.57;;;;;;;26.60;44.85;99141.50;5052552;28;20049;-66
2022/07/23 04:05:41;;;;;;;7.70;4.90;;;;;;;26.68;44.42;99143.25;5052951;28;20040;-66
2022/07/23 04:08:11;;;;;;;;;;;;;;;26.79;44.20;99146.22;5052470;28;20048;-65
2022/07/23 04:10:42;;;;;;;5.88;5.22;;;;;;;26.80;44.38;99145.88;5036343;28;19928;-68
2022/07/23 04:13:08;;;;;;;6.78;4.60;;;;;;;26.90;44.12;99147.28;5052632;28;20049;-65
2022/07/23 04:15:34;;;;;;;7.78;5.43;;;;;;;26.75;44.87;99151.59;5069546;28;20452;-64
2022/07/23 04:18:00;;;;;;;7.28;4.88;;;;;;;26.76;44.63;99152.38;5053473;28;20057;-65
2022/07/23 04:20:36;;;;;;;5.55;5.05;;;;;;;26.58;45.32;99152.72;5053225;28;20401;-64
2022/07/23 04:23:03;;;;;;;7.22;5.30;;;;;;;26.68;45.88;99145.97;5052091;28;20131;-66
2022/07/23 04:25:29;;;;;;;6.57;5.07;;;;;;;26.92;44.98;99153.94;5036070;28;20068;-65
2022/07/23 04:27:54;;;;;;;7.15;4.80;;;;;;;27.00;44.96;99160.31;5053237;28;20053;-65
2022/07/23 04:30:20;;;;;;;6.43;4.75;;;;;;;26.95;45.15;99155.19;5052247;28;20044;-66
2022/07/23 04:32:47;;;;;;;6.65;5.10;;;;;;;26.94;44.99;99159.03;5069008;28;20060;-65
2022/07/23 04:35:20;;;;;;;6.50;4.78;;;;;;;27.12;44.52;99157.53;5050193;28;20561;-66
2022/07/23 04:37:46;;;;;;;5.57;4.90;;;;;;;27.22;44.37;99156.22;5051298;28;20056;-66
2022/07/23 04:40:13;;;;;;;6.05;4.93;;;;;;;27.24;44.71;99151.22;5047152;28;20376;-65
2022/07/23 04:42:39;;;;;;;7.47;5.47;;;;;;;27.30;44.69;99154.47;5048794;28;20136;-67
2022/07/23 04:45:06;;;;;;;7.63;4.78;;;;;;;27.32;44.78;99152.94;5026129;28;20128;-66
2022/07/23 04:47:31;;;;;;;8.90;5.00;;;;;;;27.25;44.65;99157.44;5068826;28;20140;-67
2022/07/23 04:49:58;;;;;;;9.73;5.80;;;;;;;27.31;44.97;99150.59;5052030;28;20070;-66
2022/07/23 04:52:24;;;;;;;6.13;5.07;;;;;;;27.60;44.66;99152.00;5051302;28;20053;-67
2022/07/23 04:54:50;;;;;;;7.40;5.50;;;;;;;27.51;44.96;99149.47;5035132;28;20041;-65
2022/07/23 04:57:16;;;;;;;6.45;5.55;;;;;;;27.66;44.48;99139.66;5051870;28;20048;-66
2022/07/23 04:59:42;;;;;;;15.40;5.55;;;;;;;27.68;44.82;99144.75;5052040;28;20045;-66
2022/07/23 05:02:09;;;;;;;8.15;5.50;;;;;;;27.95;44.13;99143.78;5034871;28;20140;-66
2022/07/23 05:04:35;;;;;;;5.55;5.05;;;;;;;28.21;43.06;99153.22;5035211;28;20128;-66
2022/07/23 05:07:02;;;;;;;8.68;5.40;;;;;;;27.82;44.08;99143.13;5051798;28;20052;-68
2022/07/23 05:09:28;;;;;;;9.07;6.28;;;;;;;27.50;45.70;99149.81;5051807;28;20041;-67
2022/07/23 05:11:54;;;;;;;6.55;5.93;;;;;;;27.17;45.66;99153.75;5034747;28;20052;-68
2022/07/23 05:14:21;;;;;;;6.95;5.63;;;;;;;26.83;46.10;99138.97;5067510;28;20051;-67
2022/07/23 05:16:46;;;;;;;7.18;6.05;;;;;;;26.89;45.80;99143.00;5067780;28;20498;-68
2022/07/23 05:19:18;;;;;;;7.72;5.47;;;;;;;26.84;46.02;99137.81;5046070;28;20097;-66
2022/07/23 05:21:45;;;;;;;9.55;6.47;;;;;;;26.72;46.57;99144.91;5052703;28;20083;-67
2022/07/23 05:24:11;;;;;;;6.40;5.80;;;;;;;26.83;46.57;99137.03;5052082;28;20071;-66
2022/07/23 05:26:37;;;;;;;7.13;5.60;;;;;;;26.75;45.71;99146.16;5051789;28;20072;-66
2022/07/23 05:29:04;;;;;;;6.95;5.97;;;;;;;26.56;46.79;99136.00;5051375;28;20037;-66
2022/07/23 05:31:30;;;;;;;6.80;5.82;;;;;;;26.44;46.80;99131.38;5034629;28;20532;-68
2022/07/23 05:33:56;;;;;;;6.65;5.95;;;;;;;26.37;47.58;99131.19;5060299;28;20060;-67
2022/07/23 05:36:22;;;;;;;8.05;6.38;;;;;;;26.37;46.85;99131.19;5031142;28;20127;-68
2022/07/23 05:38:53;;;;;;;7.40;6.20;;;;;;;26.33;46.71;99134.97;5023882;28;20059;-67
2022/07/23 05:41:19;;;;;;;9.38;6.63;;;;;;;26.18;47.58;99134.59;5051076;28;20045;-66
2022/07/23 05:43:47;;;;;;;9.07;6.07;;;;;;;26.17;47.07;99129.50;5035033;28;20041;-66
2022/07/23 05:46:14;;;;;;;6.88;5.63;;;;;;;26.04;47.58;99132.28;5052024;28;20071;-65
2022/07/23 05:48:42;;;;;;;6.40;5.80;;;;;;;25.99;45.72;99131.72;5064588;28;20041;-67
2022/07/23 05:51:25;;;;;;;8.75;6.00;;;;;;;25.80;46.88;99127.72;5036516;28;20068;-66
2022/07/23 05:53:52;;;;;;;7.80;5.85;;;;;;;25.91;47.19;99130.72;5033509;28;20444;-69
2022/07/23 05:56:20;;;;;;;6.70;6.05;;;;;;;25.89;47.05;99129.53;5034462;28;20052;-68
2022/07/23 05:58:46;;;;;;;7.25;5.80;;;;;;;25.92;46.52;99123.41;5033915;28;20033;-67
2022/07/23 06:01:14;;;;;;;7.45;5.82;;;;;;;25.96;46.52;99122.34;5050741;28;20457;-67
2022/07/23 06:03:56;;;;;;;6.97;6.25;;;;;;;25.93;47.33;99125.75;5046239;28;20045;-65
2022/07/23 06:06:28;;;;;;;6.75;5.97;;;;;;;25.86;46.64;99127.50;5031023;28;20183;-67
2022/07/23 06:08:55;;;;;;;6.88;6.07;;;;;;;25.75;46.55;99119.81;5016161;28;20141;-64
2022/07/23 06:11:21;;;;;;;7.13;6.38;;;;;;;25.76;46.52;99121.38;5061428;28;20186;-65
2022/07/23 06:13:47;;;;;;;8.23;6.40;;;;;;;25.70;45.84;99121.97;5036699;28;20050;-65
2022/07/23 06:16:12;;;;;;;6.90;6.20;;;;;;;25.71;46.22;99123.56;5037435;28;20049;-65
2022/07/23 06:18:38;;;;;;;7.88;6.03;;;;;;;25.81;46.06;99120.34;5053058;28;20410;-64
2022/07/23 06:21:03;;;;;;;8.38;6.53;;;;;;;25.82;46.70;99119.22;5013847;28;20081;-66
2022/07/23 06:23:32;;;;;;;7.80;6.00;;;;;;;25.64;46.31;99124.13;5032685;28;20048;-64
2022/07/23 06:25:58;;;;;;;7.43;6.20;;;;;;;25.60;45.95;99126.75;5065880;28;20533;-63
2022/07/23 06:28:23;;;;;;;8.75;6.20;;;;;;;25.56;46.60;99119.63;5015751;28;20150;-64
2022/07/23 06:30:49;;;;;;;6.72;6.03;;;;;;;25.64;45.81;99120.63;5020642;28;20038;-65
2022/07/23 06:33:15;;;;;;;7.80;6.32;;;;;;;25.66;46.14;99127.31;5021982;28;20064;-65
2022/07/23 06:35:41;;;;;;;7.15;6.38;;;;;;;25.64;45.70;99126.06;5042554;28;20033;-64
2022/07/23 06:38:07;;;;;;;7.35;5.97;;;;;;;25.58;46.28;99125.50;5038397;28;20573;-64
2022/07/23 06:40:33;;;;;;;8.32;6.55;;;;;;;25.57;45.86;99115.78;5050215;28;20123;-64
2022/07/23 06:42:58;;;;;;;6.38;5.78;;;;;;;25.63;46.24;99116.34;5049604;28;20029;-63
2022/07/23 06:45:26;;;;;;;6.68;6.07;;;;;;;25.65;46.26;99120.31;5049882;28;20053;-65
2022/07/23 06:47:52;;;;;;;7.07;5.95;;;;;;;25.65;45.56;99125.72;5048757;28;20044;-63
2022/07/23 06:50:18;;;;;;;7.95;6.63;;;;;;;25.69;46.34;99114.97;5049990;28;20126;-65
2022/07/23 06:52:44;;;;;;;7.72;6.38;;;;;;;25.65;46.51;99124.91;5029801;28;20037;-65
2022/07/23 06:55:10;;;;;;;7.35;6.65;;;;;;;25.64;46.56;99120.63;5049158;28;20045;-64
2022/07/23 06:57:36;;;;;;;7.15;6.25;;;;;;;25.61;46.96;99122.88;5051226;28;20045;-63
2022/07/23 07:00:03;;;;;;;8.85;6.70;;;;;;;25.66;47.13;99126.50;5049372;28;20051;-63
2022/07/23 07:02:29;;;;;;;8.40;6.85;;;;;;;25.79;47.45;99115.25;5049930;28;20241;-63
2022/07/23 07:04:56;;;;;;;9.85;6.68;;;;;;;25.95;46.85;99114.56;5050586;28;20490;-64
2022/07/23 07:07:21;;;;;;;7.55;6.68;;;;;;;25.92;46.41;99117.97;5050834;28;20090;-63
2022/07/23 07:09:47;;;;;;;7.85;6.18;;;;;;;25.91;45.40;99111.72;5049119;28;20124;-64
2022/07/23 07:12:13;;;;;;;7.32;6.43;;;;;;;25.94;46.50;99115.69;5032909;28;20052;-64
2022/07/23 07:14:38;;;;;;;9.10;6.70;;;;;;;25.95;45.68;99115.34;5050712;28;20055;-65
2022/07/23 07:17:04;;;;;;;7.32;6.63;;;;;;;25.92;46.20;99120.69;5068619;28;20537;-66
2022/07/23 07:19:30;;;;;;;7.82;6.90;;;;;;;25.88;45.98;99112.41;5054093;28;20389;-64
2022/07/23 07:21:56;;;;;;;6.75;6.07;;;;;;;25.92;46.89;99121.47;5054966;28;20045;-68
2022/07/23 07:24:21;;;;;;;8.15;6.43;;;;;;;26.18;46.69;99112.06;5043042;28;20120;-66
2022/07/23 07:26:47;;;;;;;8.43;7.00;;;;;;;26.25;45.09;99110.31;5033395;28;20211;-67
2022/07/23 07:29:12;;;;;;;7.80;7.00;;;;;;;26.16;46.05;99111.63;5048327;28;20405;-66
2022/07/23 07:31:38;;;;;;;7.93;6.60;;;;;;;26.22;45.87;99113.72;5054624;28;20095;-66
2022/07/23 07:34:04;;;;;;;7.80;6.32;;;;;;;26.35;45.64;99110.94;5069517;28;20037;-62
2022/07/23 07:36:29;;;;;;;7.63;6.72;;;;;;;26.32;45.05;99112.41;5054343;28;20533;-64
2022/07/23 07:38:55;;;;;;;8.10;6.80;;;;;;;26.25;45.64;99106.81;5053828;28;20106;-64
2022/07/23 07:41:25;;;;;;;8.07;7.28;;;;;;;26.31;44.65;99107.34;5052931;28;20041;-63
2022/07/23 07:43:52;;;;;;;8.07;6.05;;;;;;;26.34;44.32;99112.09;5069197;28;20087;-64
2022/07/23 07:46:17;;;;;;;7.93;6.63;;;;;;;26.45;44.41;99103.06;5052734;28;20048;-65
2022/07/23 07:48:43;;;;;;;8.20;7.10;;;;;;;26.53;44.55;99109.47;5053797;28;20486;-64
2022/07/23 07:51:09;;;;;;;6.80;6.10;;;;;;;26.70;43.92;99106.41;5036366;28;20044;-63
2022/07/23 07:53:34;;;;;;;7.63;6.72;;;;;;;26.73;43.57;99105.69;5053018;28;20112;-64
2022/07/23 07:56:00;;;;;;;7.38;6.68;;;;;;;26.86;43.80;99114.56;5054410;28;20040;-62
2022/07/23 07:58:26;;;;;;;7.47;6.78;;;;;;;26.83;43.68;99119.94;5052925;28;20064;-65
2022/07/23 08:00:51;;;;;;;8.68;6.78;;;;;;;26.82;42.96;99110.19;5054368;28;20402;-64
2022/07/23 08:03:17;;;;;;;7.80;7.07;;;;;;;26.89;42.64;99118.50;5054353;28;20053;-65
2022/07/23 08:05:43;;;;;;;8.50;6.47;;;;;;;26.80;43.25;99115.19;5054372;28;20441;-65
2022/07/23 08:08:14;;;;;;;7.53;6.00;;;;;;;26.63;42.91;99111.69;5053910;28;20053;-64
2022/07/23 08:10:40;;;;;;;7.13;6.15;;;;;;;26.56;43.29;99113.44;5052887;28;20044;-64
2022/07/23 08:13:06;;;;;;;8.00;7.10;;;;;;;26.83;42.94;99111.78;5053814;28;20040;-64
2022/07/23 08:15:32;;;;;;;7.05;6.35;;;;;;;27.15;42.44;99110.59;5054277;28;20048;-69
2022/07/23 08:17:59;;;;;;;7.18;6.45;;;;;;;27.11;42.51;99115.13;5052006;28;20051;-69
2022/07/23 08:20:25;;;;;;;8.98;6.72;;;;;;;27.06;42.36;99117.31;5052546;28;20490;-68
2022/07/23 08:22:57;;;;;;;8.20;6.78;;;;;;;27.24;42.28;99115.84;5053622;28;20060;-67
2022/07/23 08:25:27;;;;;;;8.07;6.80;;;;;;;27.43;41.46;99103.41;5052447;28;20098;-66
2022/07/23 08:27:58;;;;;;;7.55;6.68;;;;;;;27.55;41.23;99106.78;5034181;28;20080;-66
2022/07/23 08:30:24;;;;;;;7.13;6.25;;;;;;;27.72;40.56;99100.13;5053952;28;20045;-67
2022/07/23 08:32:53;;;;;;;8.40;7.07;;;;;;;27.81;41.39;99111.59;5053479;28;20102;-66
2022/07/23 08:35:23;;;;;;;7.78;6.97;;;;;;;27.96;40.71;99104.50;5052983;28;20468;-67
2022/07/23 08:37:49;;;;;;;7.95;6.93;;;;;;;27.82;39.87;99106.94;5053004;28;20494;-68
2022/07/23 08:40:15;;;;;;;6.97;6.28;;;;;;;27.90;40.00;99113.31;5051998;28;20090;-68
2022/07/23 08:42:41;;;;;;;7.38;6.47;;;;;;;27.96;39.92;99106.44;5053439;28;20079;-69
2022/07/23 08:45:09;;;;;;;9.05;6.47;;;;;;;27.87;39.58;99108.59;5051687;28;20059;-69
2022/07/23 08:47:37;;;;;;;7.22;6.63;;;;;;;27.62;40.01;99095.25;5035480;28;20132;-69
2022/07/23 08:50:03;;;;;;;6.95;6.32;;;;;;;27.53;40.70;99094.66;5053154;28;20041;-69
2022/07/23 08:52:30;;;;;;;7.10;6.07;;;;;;;27.55;40.90;99095.88;5053305;28;20414;-66
2022/07/23 08:54:56;;;;;;;8.32;7.53;;;;;;;27.45;40.75;99093.75;5053281;28;20037;-67
2022/07/23 08:57:22;;;;;;;7.90;6.18;;;;;;;27.47;41.44;99096.88;5053092;28;20051;-66
2022/07/23 08:59:49;;;;;;;7.63;6.28;;;;;;;27.54;40.11;99093.53;5052456;28;20472;-67
2022/07/23 09:02:14;;;;;;;7.35;6.55;;;;;;;27.53;39.96;99094.66;5051570;28;20044;-67
2022/07/23 09:04:40;;;;;;;6.90;6.20;;;;;;;27.49;39.71;99093.81;5053068;28;20110;-67
2022/07/23 09:07:05;;;;;;;7.57;6.32;;;;;;;27.55;39.67;99086.94;5051607;28;20052;-67
2022/07/23 09:09:33;;;;;;;7.80;6.95;;;;;;;27.58;39.40;99094.38;5052653;28;20124;-67
2022/07/23 09:12:06;;;;;;;9.27;6.32;;;;;;;27.56;39.40;99091.22;5052706;28;20051;-68
2022/07/23 09:14:43;;;;;;;8.45;7.05;;;;;;;27.77;39.49;99093.59;5052668;28;20048;-68
2022/07/23 09:17:18;;;;;;;8.90;7.43;;;;;;;27.94;38.88;99086.94;5051199;28;20430;-68
2022/07/23 09:19:45;;;;;;;8.20;7.50;;;;;;;28.14;38.46;99087.69;5052722;28;20036;-66
2022/07/23 09:22:27;;;;;;;7.53;6.72;;;;;;;28.37;37.67;99082.25;5053007;28;20044;-67
2022/07/23 09:25:04;;;;;;;7.80;6.78;;;;;;;28.42;37.93;99084.72;5050981;28;20047;-68
2022/07/23 09:27:49;;;;;;;8.25;6.47;;;;;;;28.54;36.42;99087.25;5051507;28;20139;-68
2022/07/23 09:30:16;;;;;;;6.75;6.05;;;;;;;28.63;36.16;99084.25;5050917;28;20126;-67
2022/07/23 09:32:42;;;;;;;7.18;6.57;;;;;;;28.38;36.70;99084.59;5034575;28;20041;-67
2022/07/23 09:35:08;;;;;;;7.55;6.50;;;;;;;28.53;36.90;99082.91;5052430;28;20063;-66
2022/07/23 09:37:34;;;;;;;9.13;7.07;;;;;;;28.76;36.06;99082.91;5050985;28;20041;-68
2022/07/23 09:40:13;;;;;;;7.38;6.38;;;;;;;28.94;35.62;99080.44;5050347;28;20049;-68
2022/07/23 09:42:38;;;;;;;7.70;6.00;;;;;;;29.10;35.75;99075.63;5050979;28;20129;-67
2022/07/23 09:45:11;;;;;;;7.68;6.57;;;;;;;29.20;35.03;99079.66;5052195;28;20068;-68
2022/07/23 09:47:37;;;;;;;7.53;6.38;;;;;;;29.33;35.70;99074.78;5051988;28;20051;-68
2022/07/23 09:50:08;;;;;;;7.50;6.28;;;;;;;29.24;35.14;99079.69;5051999;28;20041;-68
2022/07/23 09:52:48;;;;;;;7.22;6.32;;;;;;;29.14;35.09;99068.28;5052230;28;20045;-67
2022/07/23 09:55:16;;;;;;;8.48;6.40;;;;;;;28.97;34.98;99076.97;5066662;28;20106;-69
2022/07/23 09:57:44;;;;;;;8.25;6.95;;;;;;;28.79;35.89;99070.47;5051660;28;20049;-69
2022/07/23 10:00:10;;;;;;;7.32;6.30;;;;;;;28.84;35.54;99064.72;5051783;28;20060;-69
2022/07/23 10:02:36;;;;;;;8.75;7.03;;;;;;;28.82;35.89;99070.50;5051773;28;20601;-69
2022/07/23 10:05:21;;;;;;;7.10;6.22;;;;;;;28.75;36.98;99062.25;5051797;28;20043;-69
2022/07/23 10:08:13;;;;;;;6.95;6.20;;;;;;;28.64;36.57;99061.28;5063007;28;20093;-67
2022/07/23 10:10:58;;;;;;;8.00;6.50;;;;;;;28.55;36.75;99064.28;5050668;28;20045;-67
2022/07/23 10:13:54;;;;;;;7.93;6.10;;;;;;;28.21;38.22;99057.84;5051302;28;20045;-67
2022/07/23 10:16:26;;;;;;;7.65;6.47;;;;;;;27.99;39.24;99060.19;5051904;28;20044;-67
2022/07/23 10:18:54;;;;;;;7.93;6.10;;;;;;;27.82;38.58;99060.63;5049985;28;20048;-66
2022/07/23 10:21:45;;;;;;;10.48;6.57;;;;;;;27.76;38.43;99053.88;5066979;28;20038;-66
2022/07/23 10:24:20;;;;;;;6.97;6.30;;;;;;;27.76;39.04;99053.88;5051114;28;20136;-67
2022/07/23 10:26:49;;;;;;;7.63;6.80;;;;;;;27.88;39.14;99047.50;5050014;28;20048;-68
2022/07/23 10:29:26;;;;;;;7.77;6.97;;;;;;;27.98;38.72;99047.72;5051156;28;20390;-67
2022/07/23 10:32:00;;;;;;;7.97;6.60;;;;;;;27.94;39.04;99043.34;5051652;28;20048;-68
2022/07/23 10:34:44;;;;;;;7.30;6.55;;;;;;;27.95;39.47;99040.28;5049725;28;20037;-67
2022/07/23 10:37:25;;;;;;;7.88;7.07;;;;;;;28.03;38.73;99044.72;5050031;28;20068;-68
2022/07/23 10:40:22;;;;;;;6.78;6.15;;;;;;;28.10;37.83;99043.25;5051216;28;20406;-66
2022/07/23 10:42:52;;;;;;;7.82;7.13;;;;;;;28.03;37.67;99038.44;5066667;28;20049;-67
2022/07/23 10:45:37;;;;;;;14.77;7.07;;;;;;;27.96;38.06;99032.88;5051329;28;20490;-67
2022/07/23 10:48:22;;;;;;;7.25;6.63;;;;;;;27.92;38.07;99024.66;5051019;28;20049;-66
2022/07/23 10:51:11;;;;;;;8.00;7.15;;;;;;;28.02;37.53;99015.88;5050509;28;20068;-68
2022/07/23 10:53:51;;;;;;;8.70;7.15;;;;;;;28.06;37.40;99016.72;5051548;28;20049;-67
2022/07/23 10:56:58;;;;;;;8.02;6.78;;;;;;;27.97;37.32;99018.91;5050930;28;20047;-67
2022/07/23 10:59:24;;;;;;;8.95;7.78;;;;;;;27.85;37.20;99022.59;5051050;28;20056;-66
2022/07/23 11:01:50;;;;;;;8.90;7.20;;;;;;;27.77;37.76;99022.81;5033100;28;20537;-66
2022/07/23 11:04:16;;;;;;;8.75;7.07;;;;;;;27.71;38.22;99016.84;5050647;28;20045;-67
2022/07/23 11:06:48;;;;;;;10.02;7.20;;;;;;;27.79;37.92;99017.78;5051187;28;20575;-67
2022/07/23 11:09:44;;;;;;;8.00;7.18;;;;;;;27.74;38.00;99012.63;5050835;28;20044;-66
2022/07/23 11:12:13;;;;;;;7.90;6.70;;;;;;;27.73;38.11;99011.81;5041591;28;20532;-66
2022/07/23 11:14:58;;;;;;;8.02;7.07;;;;;;;27.70;38.32;99026.16;5051208;28;20040;-66
2022/07/23 11:17:27;;;;;;;7.20;6.50;;;;;;;27.72;38.22;99015.69;5050009;28;20053;-66
2022/07/23 11:20:13;;;;;;;7.35;6.57;;;;;;;27.78;38.16;99011.56;5049159;28;20041;-65
2022/07/23 11:22:44;;;;;;;10.13;7.35;;;;;;;27.66;38.68;99017.16;5049809;28;20056;-65
2022/07/23 11:25:12;;;;;;;7.78;7.03;;;;;;;27.80;37.59;99011.22;5066044;28;20075;-66
2022/07/23 11:27:42;;;;;;;7.63;6.82;;;;;;;27.90;37.71;99004.38;5050942;28;20053;-64
2022/07/23 11:30:09;;;;;;;7.05;6.45;;;;;;;27.90;37.63;99007.09;5050514;28;20057;-66
2022/07/23 11:32:40;;;;;;;9.52;6.55;;;;;;;27.94;38.64;99008.72;5050980;28;20060;-66
2022/07/23 11:35:21;;;;;;;7.60;6.80;;;;;;;27.99;37.42;99008.41;5049276;28;20045;-66
2022/07/23 11:37:48;;;;;;;8.25;7.43;;;;;;;28.14;36.97;99009.44;5065819;28;20099;-66
2022/07/23 11:40:16;;;;;;;9.05;7.30;;;;;;;28.27;36.55;98999.94;5049157;28;20044;-66